Time;durP1;ratioP1;P1;durP2;ratioP2;P2;SDS_P1;SDS_P2;PMS_P1;PMS_P2;Temp;Humidity;BMP_temperature;BMP_pressure;BME280_temperature;BME280_humidity;BME280_pressure;Samples;Min_cycle;Max_cycle;Signal;HPM_P1;HPM_P2
2022/01/06 00:01:45;;;;;;;16.00;3.77;;;2.70;99.90;;;;;;5060629;22;20229;-83
2022/01/06 00:04:10;;;;;;;5.80;2.30;;;2.50;99.90;;;;;;5022523;28;20190;-79
2022/01/06 00:06:40;;;;;;;9.87;3.13;;;2.70;99.90;;;;;;5022715;28;20772;-84
2022/01/06 00:09:07;;;;;;;6.28;2.90;;;2.70;99.90;;;;;;5021819;28;20218;-83
2022/01/06 00:11:33;;;;;;;17.60;3.55;;;2.80;99.90;;;;;;5034049;28;20181;-82
2022/01/06 00:14:09;;;;;;;4.60;2.65;;;2.80;99.90;;;;;;5033837;28;20186;-83
2022/01/06 00:24:47;;;;;;;6.40;3.42;;;2.90;99.90;;;;;;5043767;28;20187;-80
2022/01/06 00:27:13;;;;;;;11.80;3.73;;;2.90;99.90;;;;;;5032090;28;20182;-80
2022/01/06 00:29:39;;;;;;;5.25;2.60;;;2.90;99.90;;;;;;5035158;28;20487;-84
2022/01/06 00:32:05;;;;;;;11.93;3.77;;;2.80;99.90;;;;;;5037376;28;20193;-82
2022/01/06 00:34:30;;;;;;;14.38;3.35;;;2.70;99.90;;;;;;5035213;28;20181;-82
2022/01/06 00:36:56;;;;;;;11.67;3.50;;;2.90;99.90;;;;;;5032779;28;20224;-80
2022/01/06 00:39:27;;;;;;;8.50;2.90;;;2.90;99.90;;;;;;5044156;28;20236;-85
2022/01/06 00:41:55;;;;;;;17.10;3.90;;;2.80;99.90;;;;;;5037614;28;20173;-82
2022/01/06 00:44:21;;;;;;;4.60;3.28;;;2.80;99.90;;;;;;5034252;28;20185;-78
2022/01/06 00:46:46;;;;;;;10.43;3.10;;;-0.50;99.90;;;;;;5033964;28;20184;-78
2022/01/06 00:49:14;;;;;;;10.00;2.67;;;2.70;99.90;;;;;;5032066;28;20205;-87
2022/01/06 00:51:39;;;;;;;14.27;4.30;;;2.80;99.90;;;;;;5035864;28;20744;-85
2022/01/06 00:54:05;;;;;;;8.90;3.13;;;;;;;;;;5042976;28;20186;-80
2022/01/06 00:56:31;;;;;;;13.40;3.30;;;;;;;;;;5046612;28;20209;-86
2022/01/06 00:58:57;;;;;;;12.00;4.33;;;2.70;99.90;;;;;;5028322;28;20448;-85
2022/01/06 01:01:23;;;;;;;10.80;4.17;;;;;;;;;;5038647;28;20463;-81
2022/01/06 01:03:49;;;;;;;14.83;3.80;;;;;;;;;;5035236;28;20194;-84
2022/01/06 01:06:14;;;;;;;9.40;2.83;;;2.70;99.90;;;;;;5039137;28;20447;-82
2022/01/06 01:08:40;;;;;;;8.30;3.20;;;2.70;99.90;;;;;;5031002;28;20451;-83
2022/01/06 01:11:06;;;;;;;16.57;3.87;;;2.70;99.90;;;;;;5032914;28;20231;-82
2022/01/06 01:13:37;;;;;;;9.68;3.45;;;2.70;99.90;;;;;;5030016;28;20207;-82
2022/01/06 01:16:19;;;;;;;4.55;3.85;;;2.70;99.90;;;;;;5033366;28;20205;-84
2022/01/06 01:18:45;;;;;;;8.80;3.22;;;2.70;99.90;;;;;;5028009;28;20181;-84
2022/01/06 01:21:11;;;;;;;10.95;3.65;;;2.80;99.90;;;;;;5036084;28;20228;-84
2022/01/06 01:23:37;;;;;;;5.90;3.47;;;;;;;;;;5039866;28;20216;-85
2022/01/06 01:26:03;;;;;;;5.68;3.55;;;2.80;99.90;;;;;;5047977;28;20184;-86
2022/01/06 01:28:33;;;;;;;7.83;3.17;;;;;;;;;;5028455;28;20575;-87
2022/01/06 01:33:44;;;;;;;15.73;3.30;;;2.60;99.90;;;;;;5036238;28;20178;-84
2022/01/06 01:36:12;;;;;;;5.68;2.58;;;2.90;99.90;;;;;;5035576;28;20257;-87
2022/01/06 01:38:39;;;;;;;5.68;2.85;;;2.90;99.90;;;;;;5035103;28;20249;-84
2022/01/06 01:41:07;;;;;;;8.40;3.63;;;2.90;99.90;;;;;;5038606;28;21254;-85
2022/01/06 01:43:33;;;;;;;10.07;3.35;;;2.90;99.90;;;;;;5038225;28;20209;-84
2022/01/06 01:46:08;;;;;;;21.97;3.30;;;;;;;;;;5033900;28;20263;-82
2022/01/06 01:48:35;;;;;;;6.03;3.30;;;2.80;99.90;;;;;;5033865;28;20427;-84
2022/01/06 01:51:02;;;;;;;10.20;2.97;;;2.80;99.90;;;;;;5032133;28;20220;-85
2022/01/06 01:53:27;;;;;;;14.30;4.30;;;2.80;99.90;;;;;;5034964;28;20177;-83
2022/01/06 01:55:53;;;;;;;19.07;3.40;;;2.80;99.90;;;;;;5031387;28;20187;-87
2022/01/06 01:58:21;;;;;;;13.53;4.30;;;2.90;99.90;;;;;;5031284;28;20537;-84
2022/01/06 02:00:46;;;;;;;18.48;3.38;;;2.90;99.90;;;;;;5024817;28;20216;-88
2022/01/06 02:03:12;;;;;;;9.73;3.80;;;;;;;;;;5034908;28;20181;-85
2022/01/06 02:05:38;;;;;;;9.38;3.08;;;3.00;99.90;;;;;;5039679;28;20185;-87
2022/01/06 02:08:05;;;;;;;13.37;3.93;;;3.00;99.90;;;;;;5036497;28;20181;-85
2022/01/06 02:10:31;;;;;;;9.20;3.60;;;3.00;99.90;;;;;;5033956;28;20201;-81
2022/01/06 02:12:57;;;;;;;6.93;3.13;;;3.00;99.90;;;;;;5032750;28;20186;-86
2022/01/06 02:15:24;;;;;;;8.70;4.60;;;3.00;99.90;;;;;;5029006;28;20265;-84
2022/01/06 02:17:49;;;;;;;18.83;3.55;;;2.50;99.90;;;;;;5044736;28;20679;-85
2022/01/06 02:20:17;;;;;;;5.20;2.17;;;3.00;99.90;;;;;;5036480;28;20208;-85
2022/01/06 02:22:43;;;;;;;5.07;3.00;;;2.90;99.90;;;;;;5037540;28;20806;-84
2022/01/06 02:25:17;;;;;;;8.35;3.10;;;2.90;99.90;;;;;;5031236;28;20883;-85
2022/01/06 02:27:51;;;;;;;4.43;3.10;;;2.90;99.90;;;;;;5028998;28;20188;-86
2022/01/06 02:30:17;;;;;;;13.30;3.08;;;2.80;99.90;;;;;;5041564;28;20232;-83
2022/01/06 02:32:43;;;;;;;9.15;2.85;;;2.80;99.90;;;;;;5030360;28;20193;-82
2022/01/06 02:35:21;;;;;;;7.43;3.40;;;2.80;99.90;;;;;;5032512;28;20685;-83
2022/01/06 02:37:47;;;;;;;7.55;2.78;;;2.90;99.90;;;;;;5035761;28;20339;-84
2022/01/06 02:40:18;;;;;;;15.55;2.50;;;2.90;99.90;;;;;;5036299;28;20205;-83
2022/01/06 02:42:47;;;;;;;19.80;3.58;;;2.90;99.90;;;;;;5037723;28;20177;-82
2022/01/06 02:45:13;;;;;;;6.40;3.55;;;2.90;99.90;;;;;;5030218;28;20185;-83
2022/01/06 02:47:40;;;;;;;6.97;4.03;;;2.70;99.90;;;;;;5035599;28;20268;-81
2022/01/06 02:50:07;;;;;;;6.00;2.80;;;4.10;99.90;;;;;;5033531;28;20193;-86
2022/01/06 02:52:32;;;;;;;9.73;3.33;;;2.60;99.90;;;;;;5039269;28;20189;-85
2022/01/06 02:54:58;;;;;;;10.77;3.07;;;;;;;;;;5035516;28;20196;-83
2022/01/06 02:57:24;;;;;;;9.38;3.65;;;2.60;99.90;;;;;;5042976;28;20193;-83
2022/01/06 02:59:50;;;;;;;8.10;3.60;;;;;;;;;;5036032;28;20632;-84
2022/01/06 03:02:16;;;;;;;9.80;2.97;;;;;;;;;;5032500;28;20192;-83
2022/01/06 03:04:42;;;;;;;5.27;2.30;;;;;;;;;;5025628;28;20527;-86
2022/01/06 03:07:08;;;;;;;6.90;3.77;;;;;;;;;;5050346;28;20485;-87
2022/01/06 03:09:38;;;;;;;6.28;3.00;;;2.60;99.90;;;;;;5044761;28;20455;-83
2022/01/06 03:12:23;;;;;;;13.80;3.25;;;2.40;99.90;;;;;;5040050;28;20235;-82
2022/01/06 03:14:48;;;;;;;9.02;2.40;;;2.50;99.90;;;;;;5051354;28;20187;-83
2022/01/06 03:17:14;;;;;;;8.57;4.20;;;2.50;99.90;;;;;;5047301;28;20359;-84
2022/01/06 03:19:40;;;;;;;20.20;3.50;;;2.50;99.90;;;;;;5050922;28;20208;-82
2022/01/06 03:22:05;;;;;;;5.63;3.23;;;2.50;99.90;;;;;;5034601;28;20190;-82
2022/01/06 03:24:31;;;;;;;10.70;3.73;;;;;;;;;;5034942;28;21191;-87
2022/01/06 03:26:57;;;;;;;7.03;3.57;;;2.50;99.90;;;;;;5039014;28;20324;-81
2022/01/06 03:29:22;;;;;;;8.07;3.70;;;2.50;99.90;;;;;;5037841;28;20591;-88
2022/01/06 03:31:48;;;;;;;13.10;4.13;;;2.60;99.90;;;;;;5033995;28;20557;-84
2022/01/06 03:34:14;;;;;;;5.97;3.27;;;2.60;99.90;;;;;;5038298;28;20193;-85
2022/01/06 03:36:40;;;;;;;14.27;5.10;;;;;;;;;;5035404;28;21144;-86
2022/01/06 03:39:06;;;;;;;6.35;3.47;;;2.60;99.90;;;;;;5043980;28;20454;-81
2022/01/06 03:41:33;;;;;;;11.53;4.90;;;;;;;;;;5027178;28;20206;-85
2022/01/06 03:43:59;;;;;;;10.63;5.80;;;2.70;99.90;;;;;;5027359;28;20420;-84
2022/01/06 03:46:24;;;;;;;8.30;3.40;;;2.70;99.90;;;;;;5038577;28;20197;-82
2022/01/06 03:48:50;;;;;;;10.47;4.90;;;;;;;;;;5033572;28;20180;-83
2022/01/06 03:51:18;;;;;;;12.40;3.77;;;2.70;99.90;;;;;;5046279;28;20203;-82
2022/01/06 03:53:44;;;;;;;14.10;4.55;;;2.70;99.90;;;;;;5033315;28;20525;-88
2022/01/06 03:56:10;;;;;;;4.43;2.53;;;;;;;;;;5036249;28;20178;-84
2022/01/06 03:58:39;;;;;;;9.00;3.20;;;2.70;99.90;;;;;;5049926;28;20228;-85
2022/01/06 04:01:05;;;;;;;8.02;3.53;;;2.80;99.90;;;;;;5037384;28;20471;-84
2022/01/06 04:03:31;;;;;;;9.50;3.58;;;2.80;99.90;;;;;;5037009;28;20201;-86
2022/01/06 04:05:57;;;;;;;8.73;5.00;;;;;;;;;;5036431;28;20213;-85
2022/01/06 04:08:22;;;;;;;8.47;3.20;;;2.80;99.90;;;;;;5049002;28;20178;-82
2022/01/06 04:10:48;;;;;;;11.90;4.10;;;;;;;;;;5037611;28;20455;-85
2022/01/06 04:13:14;;;;;;;9.70;3.80;;;2.80;99.90;;;;;;5035045;28;20218;-84
2022/01/06 04:15:39;;;;;;;5.93;3.80;;;2.80;99.90;;;;;;5035730;28;20803;-83
2022/01/06 04:18:05;;;;;;;5.67;3.00;;;2.80;99.90;;;;;;5034654;28;20219;-82
2022/01/06 04:20:31;;;;;;;8.37;3.67;;;;;;;;;;5033882;28;20204;-83
2022/01/06 04:22:57;;;;;;;10.80;4.37;;;2.60;99.90;;;;;;5038158;28;20180;-84
2022/01/06 04:25:22;;;;;;;7.20;3.83;;;;;;;;;;5035150;28;20442;-84
2022/01/06 04:27:48;;;;;;;8.27;3.20;;;;;;;;;;5031777;28;20198;-83
2022/01/06 04:30:14;;;;;;;12.87;3.40;;;;;;;;;;5035436;28;20567;-82
2022/01/06 04:32:40;;;;;;;9.80;4.22;;;2.60;99.90;;;;;;5036282;28;20433;-80
2022/01/06 04:35:07;;;;;;;7.43;3.17;;;2.70;99.90;;;;;;5032540;28;20185;-80
2022/01/06 04:37:33;;;;;;;17.35;3.85;;;6.20;99.90;;;;;;5029670;28;20215;-85
2022/01/06 04:39:59;;;;;;;7.77;2.77;;;;;;;;;;5033937;28;20198;-85
2022/01/06 04:42:25;;;;;;;7.82;3.83;;;2.80;99.90;;;;;;5041186;28;20169;-83
2022/01/06 04:44:51;;;;;;;14.83;4.70;;;;;;;;;;5042063;28;20182;-85
2022/01/06 04:47:16;;;;;;;14.73;4.77;;;;;;;;;;5045745;28;20185;-83
2022/01/06 04:49:42;;;;;;;17.37;5.27;;;;;;;;;;5048349;28;20546;-84
2022/01/06 04:52:08;;;;;;;8.43;3.70;;;2.80;99.90;;;;;;5040920;28;21024;-85
2022/01/06 04:54:34;;;;;;;17.13;3.87;;;;;;;;;;5037998;28;20182;-84
2022/01/06 04:56:59;;;;;;;9.70;3.47;;;2.90;99.90;;;;;;5038244;28;20262;-80
2022/01/06 04:59:25;;;;;;;10.23;3.87;;;;;;;;;;5037631;28;20456;-87
2022/01/06 05:01:51;;;;;;;9.77;4.43;;;;;;;;;;5037876;28;20240;-87
2022/01/06 05:11:55;;;;;;;10.55;3.30;;;2.90;99.90;;;;;;5056419;28;20209;-87
2022/01/06 05:16:50;;;;;;;12.07;3.40;;;2.90;99.90;;;;;;5070334;28;20247;-87
2022/01/06 05:19:16;;;;;;;7.78;4.38;;;2.80;99.90;;;;;;5075833;28;20176;-88
2022/01/06 05:21:42;;;;;;;7.93;4.30;;;2.90;99.90;;;;;;5057239;28;20191;-86
2022/01/06 05:24:16;;;;;;;8.17;3.90;;;;;;;;;;5071403;28;20200;-85
2022/01/06 05:26:42;;;;;;;18.45;6.35;;;2.90;99.90;;;;;;5076612;28;20176;-87
2022/01/06 05:29:09;;;;;;;18.38;4.65;;;2.90;99.90;;;;;;5072786;28;20788;-86
2022/01/06 05:31:35;;;;;;;16.42;4.20;;;2.90;99.90;;;;;;5072641;28;20187;-85
2022/01/06 05:34:01;;;;;;;7.25;3.83;;;2.90;99.90;;;;;;5072967;28;20214;-85
2022/01/06 05:36:27;;;;;;;9.73;3.90;;;;;;;;;;5072647;28;20616;-86
2022/01/06 05:38:53;;;;;;;7.87;3.73;;;2.90;99.90;;;;;;5069913;28;20172;-85
2022/01/06 05:41:18;;;;;;;6.70;4.30;;;3.00;99.90;;;;;;5071654;28;20466;-86
2022/01/06 05:43:44;;;;;;;7.73;3.93;;;3.00;99.90;;;;;;5073047;28;20233;-86
2022/01/06 05:46:10;;;;;;;12.93;4.40;;;;;;;;;;5073054;28;20630;-86
2022/01/06 05:48:36;;;;;;;7.93;2.95;;;3.00;99.90;;;;;;5072275;28;20200;-88
2022/01/06 05:51:01;;;;;;;17.83;4.80;;;2.90;99.90;;;;;;5076766;28;20234;-88
2022/01/06 05:53:28;;;;;;;6.40;3.77;;;2.90;99.90;;;;;;5074743;28;20200;-87
2022/01/06 05:55:53;;;;;;;8.25;3.58;;;2.90;99.90;;;;;;5071481;28;20173;-87
2022/01/06 05:58:19;;;;;;;8.73;3.60;;;;;;;;;;5076301;28;20283;-88
2022/01/06 06:00:45;;;;;;;16.23;4.23;;;2.90;99.90;;;;;;5068526;28;20619;-86
2022/01/06 06:03:10;;;;;;;12.67;3.53;;;2.80;99.90;;;;;;5071122;28;20489;-86
2022/01/06 06:05:36;;;;;;;12.10;3.73;;;2.70;99.90;;;;;;5070510;28;20566;-85
2022/01/06 06:08:01;;;;;;;12.47;4.03;;;2.50;99.90;;;;;;5068798;28;20183;-85
2022/01/06 06:10:27;;;;;;;8.73;3.57;;;2.50;99.90;;;;;;5066958;28;20655;-85
2022/01/06 06:12:53;;;;;;;6.33;2.70;;;2.50;99.90;;;;;;5069042;28;20208;-87
2022/01/06 06:15:20;;;;;;;7.40;4.25;;;2.20;99.90;;;;;;5070096;28;20592;-86
2022/01/06 06:17:46;;;;;;;8.45;2.97;;;3.10;99.90;;;;;;5070051;28;20200;-86
2022/01/06 06:20:12;;;;;;;21.10;3.80;;;2.40;99.90;;;;;;5066779;28;20188;-86
2022/01/06 06:22:38;;;;;;;10.88;4.15;;;2.30;99.90;;;;;;5072285;28;20168;-86
2022/01/06 06:25:04;;;;;;;10.43;4.20;;;2.30;99.90;;;;;;5071140;28;20544;-88
2022/01/06 06:27:29;;;;;;;9.15;2.70;;;2.30;99.90;;;;;;5071471;28;20191;-87
2022/01/06 06:29:55;;;;;;;12.23;3.00;;;2.30;99.90;;;;;;5065031;28;20291;-87
2022/01/06 06:32:21;;;;;;;14.37;4.30;;;2.40;99.90;;;;;;5074738;28;20227;-87
2022/01/06 06:34:46;;;;;;;11.37;3.37;;;2.50;99.90;;;;;;5071564;28;20791;-86
2022/01/06 06:37:12;;;;;;;6.10;2.70;;;2.50;99.90;;;;;;5060172;28;20212;-87
2022/01/06 06:39:37;;;;;;;13.33;3.97;;;2.50;99.90;;;;;;5073128;28;20651;-86
2022/01/06 06:42:03;;;;;;;8.43;3.20;;;2.50;99.90;;;;;;5073020;28;20725;-87
2022/01/06 06:44:29;;;;;;;5.97;3.70;;;;;;;;;;5074575;28;20308;-87
2022/01/06 06:46:55;;;;;;;3.93;2.47;;;2.50;99.90;;;;;;5078191;28;20267;-88
2022/01/06 06:49:21;;;;;;;8.53;3.00;;;;;;;;;;5081486;28;20479;-87
2022/01/06 06:51:47;;;;;;;15.80;4.60;;;2.40;99.90;;;;;;5078481;28;20173;-88
2022/01/06 06:54:15;;;;;;;11.87;2.40;;;2.40;99.90;;;;;;5076224;28;20207;-88
2022/01/06 06:56:42;;;;;;;12.48;2.83;;;2.20;99.90;;;;;;5079179;28;20274;-87
2022/01/06 06:59:08;;;;;;;6.95;2.90;;;2.20;99.90;;;;;;5077880;28;20172;-87
2022/01/06 07:01:33;;;;;;;14.10;3.53;;;2.30;99.90;;;;;;5079990;28;20187;-88
2022/01/06 07:03:59;;;;;;;9.80;5.50;;;2.30;99.90;;;;;;5077434;28;20794;-87
2022/01/06 07:06:25;;;;;;;11.00;3.43;;;;;;;;;;5077040;28;20218;-88
2022/01/06 07:08:50;;;;;;;12.27;3.50;;;2.30;99.90;;;;;;5076191;28;20180;-88
2022/01/06 07:11:16;;;;;;;9.07;4.83;;;;;;;;;;5074648;28;20808;-86
2022/01/06 07:13:42;;;;;;;4.87;2.70;;;2.30;99.90;;;;;;5089954;28;20188;-86
2022/01/06 07:16:07;;;;;;;8.90;3.70;;;2.30;99.90;;;;;;5074302;28;20450;-86
2022/01/06 07:18:33;;;;;;;8.60;3.70;;;2.40;99.90;;;;;;5075274;28;20419;-86
2022/01/06 07:20:59;;;;;;;7.63;2.93;;;2.40;99.90;;;;;;5072118;28;20180;-85
2022/01/06 07:23:24;;;;;;;10.70;2.83;;;2.40;99.90;;;;;;5073923;28;20285;-85
2022/01/06 07:25:50;;;;;;;7.27;3.40;;;2.40;99.90;;;;;;5072999;28;20654;-88
2022/01/06 07:28:15;;;;;;;9.93;4.90;;;2.40;99.90;;;;;;5073056;28;20203;-85
2022/01/06 07:30:41;;;;;;;11.90;5.80;;;2.30;99.90;;;;;;5073835;28;20263;-83
2022/01/06 07:33:06;;;;;;;12.03;3.60;;;2.30;99.90;;;;;;5073811;28;20227;-86
2022/01/06 07:35:32;;;;;;;8.27;3.57;;;2.30;99.90;;;;;;5069332;28;20176;-85
2022/01/06 07:37:58;;;;;;;9.53;4.33;;;2.20;99.90;;;;;;5071513;28;20413;-85
2022/01/06 07:40:23;;;;;;;6.07;3.13;;;2.20;99.90;;;;;;5073540;28;20242;-84
2022/01/06 07:42:50;;;;;;;7.40;3.63;;;2.10;99.90;;;;;;5072162;28;20196;-86
2022/01/06 07:45:16;;;;;;;10.57;4.38;;;2.10;99.90;;;;;;5073345;28;20756;-87
2022/01/06 07:50:35;;;;;;;11.02;4.45;;;2.10;99.90;;;;;;5054378;28;20292;-86
2022/01/06 07:53:01;;;;;;;9.48;4.90;;;2.20;99.90;;;;;;5074783;28;20207;-85
2022/01/06 07:55:27;;;;;;;10.75;3.92;;;2.20;99.90;;;;;;5077697;28;20225;-85
2022/01/06 07:57:54;;;;;;;7.85;4.03;;;2.20;99.90;;;;;;5069812;28;20192;-81
2022/01/06 08:00:20;;;;;;;11.57;4.25;;;2.20;99.90;;;;;;5073467;28;20235;-82
2022/01/06 08:02:46;;;;;;;17.20;5.78;;;2.30;99.90;;;;;;5078558;28;20278;-81
2022/01/06 08:05:14;;;;;;;9.47;4.57;;;2.20;99.90;;;;;;5071971;28;20205;-81
2022/01/06 08:07:39;;;;;;;12.43;4.50;;;2.30;99.90;;;;;;5073589;28;20419;-81
2022/01/06 08:10:07;;;;;;;15.53;4.50;;;2.30;99.90;;;;;;5072666;28;20272;-82
2022/01/06 08:12:33;;;;;;;11.50;5.53;;;2.40;99.90;;;;;;5076348;28;20749;-81
2022/01/06 08:14:58;;;;;;;9.47;3.60;;;2.30;99.90;;;;;;5076231;28;20185;-81
2022/01/06 08:17:24;;;;;;;11.33;5.23;;;2.60;99.90;;;;;;5072709;28;20207;-81
2022/01/06 08:19:51;;;;;;;6.33;4.53;;;3.10;99.90;;;;;;5070849;28;20177;-81
2022/01/06 08:22:18;;;;;;;14.70;5.93;;;3.50;99.90;;;;;;5071178;28;20169;-81
2022/01/06 08:24:43;;;;;;;11.52;4.18;;;3.90;99.90;;;;;;5073426;28;20275;-82
2022/01/06 08:27:09;;;;;;;12.73;4.70;;;4.40;99.90;;;;;;5072836;28;20714;-82
2022/01/06 08:29:35;;;;;;;10.97;4.23;;;4.80;99.90;;;;;;5077717;28;20198;-81
2022/01/06 08:32:01;;;;;;;18.02;4.68;;;4.80;99.90;;;;;;5076671;28;20188;-81
2022/01/06 08:34:27;;;;;;;7.40;4.40;;;4.70;99.90;;;;;;5074079;28;20556;-83
2022/01/06 08:36:53;;;;;;;15.53;4.97;;;4.80;99.90;;;;;;5074838;28;20219;-82
2022/01/06 08:39:19;;;;;;;7.80;3.72;;;4.90;99.90;;;;;;5074869;28;20177;-82
2022/01/06 08:41:45;;;;;;;16.40;5.43;;;4.70;99.90;;;;;;5060836;28;20772;-81
2022/01/06 08:44:10;;;;;;;15.03;5.23;;;4.80;99.90;;;;;;5065509;28;20208;-82
2022/01/06 08:46:36;;;;;;;16.73;4.50;;;4.70;99.90;;;;;;5075259;28;20206;-82
2022/01/06 08:49:04;;;;;;;10.33;4.67;;;4.80;99.90;;;;;;5075492;28;20194;-82
2022/01/06 08:51:29;;;;;;;7.60;4.30;;;5.10;99.90;;;;;;5074750;28;20187;-82
2022/01/06 08:53:55;;;;;;;6.93;3.03;;;5.10;99.90;;;;;;5071316;28;20275;-83
2022/01/06 08:56:20;;;;;;;4.67;2.97;;;4.90;99.90;;;;;;5066850;28;20226;-80
2022/01/06 08:58:46;;;;;;;8.67;3.93;;;4.60;99.90;;;;;;5071178;28;20180;-80
2022/01/06 09:01:12;;;;;;;5.80;3.47;;;4.60;99.90;;;;;;5072760;28;20192;-81
2022/01/06 09:03:37;;;;;;;16.48;4.97;;;4.50;99.90;;;;;;5074268;28;20203;-80
2022/01/06 09:06:03;;;;;;;4.30;2.13;;;4.40;99.90;;;;;;5062957;28;20177;-80
2022/01/06 09:08:29;;;;;;;8.20;4.00;;;4.40;99.90;;;;;;5073268;28;20617;-81
2022/01/06 09:10:55;;;;;;;7.95;3.35;;;4.40;99.90;;;;;;5074927;28;20184;-83
2022/01/06 09:13:20;;;;;;;8.60;2.93;;;4.70;99.90;;;;;;5066267;28;20218;-84
2022/01/06 09:15:46;;;;;;;7.57;3.10;;;4.90;99.90;;;;;;5077238;28;20188;-85
2022/01/06 09:18:11;;;;;;;10.90;3.40;;;5.10;99.90;;;;;;5077028;28;20223;-84
2022/01/06 09:20:37;;;;;;;9.13;3.00;;;5.50;99.90;;;;;;5077601;28;20218;-86
2022/01/06 09:23:02;;;;;;;8.53;2.90;;;5.50;99.90;;;;;;5075716;28;20200;-85
2022/01/06 09:25:28;;;;;;;12.20;3.50;;;5.10;99.90;;;;;;5073846;28;20184;-86
2022/01/06 09:27:54;;;;;;;5.50;3.10;;;5.60;99.90;;;;;;5073452;28;20188;-84
2022/01/06 09:30:23;;;;;;;3.38;2.17;;;;;;;;;;5071896;28;20247;-84
2022/01/06 09:32:50;;;;;;;13.02;3.25;;;5.30;99.90;;;;;;5073955;28;20200;-88
2022/01/06 09:35:17;;;;;;;6.22;2.15;;;5.30;99.90;;;;;;5081573;28;20184;-88
2022/01/06 09:37:43;;;;;;;8.63;3.22;;;5.10;99.90;;;;;;5082395;28;20189;-88
2022/01/06 09:40:09;;;;;;;10.00;3.10;;;5.10;99.90;;;;;;5083027;28;20172;-88
2022/01/06 09:42:36;;;;;;;9.13;3.70;;;5.40;99.90;;;;;;5081724;28;20165;-88
2022/01/06 09:45:03;;;;;;;9.80;3.10;;;5.40;99.90;;;;;;5082417;28;20161;-88
2022/01/06 09:47:32;;;;;;;8.00;2.83;;;5.00;99.90;;;;;;5082357;28;20188;-88
2022/01/06 09:49:59;;;;;;;6.30;3.90;;;4.50;99.90;;;;;;5082500;28;20175;-88
2022/01/06 09:52:26;;;;;;;4.43;2.40;;;4.10;99.90;;;;;;5082857;28;20167;-88
2022/01/06 09:54:53;;;;;;;12.18;2.97;;;4.10;99.90;;;;;;5082039;28;20176;-88
2022/01/06 09:57:18;;;;;;;5.80;3.85;;;4.00;99.90;;;;;;5082162;28;20196;-88
2022/01/06 09:59:44;;;;;;;7.73;3.83;;;;;;;;;;5083744;28;20593;-88
2022/01/06 10:02:18;;;;;;;11.03;3.40;;;3.90;99.90;;;;;;5082096;28;20236;-89
2022/01/06 10:04:45;;;;;;;9.40;3.17;;;3.90;99.90;;;;;;5084885;28;20437;-88
2022/01/06 10:07:13;;;;;;;6.18;2.88;;;3.90;99.90;;;;;;5082435;28;20180;-89
2022/01/06 10:09:40;;;;;;;15.15;3.25;;;4.00;99.90;;;;;;5082031;28;20196;-88
2022/01/06 10:12:10;;;;;;;7.80;2.70;;;4.00;99.90;;;;;;5083574;28;20584;-88
2022/01/06 10:14:42;;;;;;;9.85;2.60;;;4.20;99.90;;;;;;5082899;28;20208;-88
2022/01/06 10:17:08;;;;;;;4.00;2.55;;;4.00;99.90;;;;;;5084442;28;20220;-88
2022/01/06 10:19:36;;;;;;;5.38;3.03;;;4.20;99.90;;;;;;5086213;28;20232;-88
2022/01/06 10:22:01;;;;;;;6.65;2.47;;;4.20;99.90;;;;;;5086327;28;20172;-87
2022/01/06 10:24:28;;;;;;;6.80;2.77;;;4.20;99.90;;;;;;5084861;28;20200;-88
2022/01/06 10:26:59;;;;;;;2.55;2.00;;;4.20;99.90;;;;;;5085312;28;20172;-88
2022/01/06 10:29:29;;;;;;;9.52;3.33;;;4.50;99.90;;;;;;5086858;28;20153;-88
2022/01/06 10:32:10;;;;;;;9.85;3.05;;;4.60;99.90;;;;;;5085014;28;20233;-88
2022/01/06 10:34:47;;;;;;;4.18;2.60;;;4.70;99.90;;;;;;5086355;28;20188;-88
2022/01/06 10:37:21;;;;;;;5.47;2.15;;;4.30;99.90;;;;;;5086986;28;20184;-88
2022/01/06 10:39:50;;;;;;;9.88;2.75;;;4.30;99.90;;;;;;5086708;28;20152;-88
2022/01/06 10:42:21;;;;;;;10.40;2.90;;;4.40;99.90;;;;;;5085742;28;20255;-88
2022/01/06 10:45:03;;;;;;;11.32;3.38;;;4.20;99.90;;;;;;5086984;28;20181;-88
2022/01/06 10:47:37;;;;;;;10.38;2.80;;;4.20;99.90;;;;;;5085888;28;20173;-88
2022/01/06 10:50:18;;;;;;;13.80;2.80;;;4.20;99.90;;;;;;5085325;28;20225;-88
2022/01/06 10:52:53;;;;;;;19.23;3.17;;;4.30;99.90;;;;;;5085522;28;20180;-88
2022/01/06 10:55:25;;;;;;;12.27;2.80;;;4.30;99.90;;;;;;5085041;28;20183;-88
2022/01/06 10:58:05;;;;;;;8.35;2.50;;;4.40;99.90;;;;;;5086616;28;20188;-88
2022/01/06 11:00:36;;;;;;;14.40;2.55;;;4.60;99.90;;;;;;5086428;28;20611;-88
2022/01/06 11:03:11;;;;;;;5.57;3.25;;;4.90;99.90;;;;;;5086927;28;20184;-87
2022/01/06 11:05:46;;;;;;;7.47;3.00;;;4.90;99.90;;;;;;5087096;28;20231;-87
2022/01/06 11:08:26;;;;;;;12.15;3.22;;;4.70;99.90;;;;;;5086402;28;20180;-87
2022/01/06 11:13:41;;;;;;;6.43;2.67;;;4.90;99.90;;;;;;5087399;28;20213;-88
2022/01/06 11:16:09;;;;;;;5.85;2.97;;;4.80;99.90;;;;;;5083558;28;20214;-87
2022/01/06 11:18:39;;;;;;;7.70;2.28;;;4.40;99.90;;;;;;5084349;28;20208;-88
2022/01/06 11:21:17;;;;;;;6.30;2.70;;;4.30;99.90;;;;;;5082813;28;20298;-86
2022/01/06 11:23:42;;;;;;;6.18;3.42;;;5.50;99.90;;;;;;5082791;28;20202;-88
2022/01/06 11:26:26;;;;;;;7.53;3.27;;;4.80;99.90;;;;;;5070835;28;20181;-87
2022/01/06 11:28:58;;;;;;;9.30;2.88;;;5.00;99.90;;;;;;5083789;28;20171;-87
2022/01/06 11:31:27;;;;;;;7.25;3.78;;;5.10;99.90;;;;;;5083832;28;20164;-87
2022/01/06 11:33:56;;;;;;;9.25;3.47;;;5.70;99.90;;;;;;5082605;28;20196;-87
2022/01/06 11:36:26;;;;;;;9.10;3.03;;;6.30;99.90;;;;;;5083006;28;20495;-87
2022/01/06 11:38:53;;;;;;;20.02;3.70;;;6.70;99.90;;;;;;5079783;28;20615;-87
2022/01/06 11:41:25;;;;;;;9.43;3.58;;;6.80;99.90;;;;;;5080706;28;20198;-87
2022/01/06 11:43:50;;;;;;;6.95;2.45;;;6.70;99.90;;;;;;5074891;28;20197;-88
2022/01/06 11:46:16;;;;;;;9.30;2.67;;;6.30;99.90;;;;;;5078732;28;20235;-87
2022/01/06 11:48:54;;;;;;;14.53;3.27;;;5.90;99.90;;;;;;5077069;28;20418;-87
2022/01/06 11:51:31;;;;;;;6.68;2.60;;;5.80;99.90;;;;;;5087442;28;20418;-87
2022/01/06 11:53:58;;;;;;;15.90;4.07;;;5.30;99.90;;;;;;5078486;28;20253;-87
2022/01/06 11:56:24;;;;;;;14.50;3.42;;;5.40;99.90;;;;;;5080900;28;20260;-87
2022/01/06 11:59:02;;;;;;;12.02;2.90;;;5.60;99.90;;;;;;5068884;28;20176;-88
2022/01/06 12:01:48;;;;;;;8.85;2.85;;;6.10;99.90;;;;;;5069741;28;20173;-86
2022/01/06 12:04:19;;;;;;;10.50;2.97;;;6.40;99.90;;;;;;5075900;28;20212;-88
2022/01/06 12:06:45;;;;;;;10.57;3.63;;;;;;;;;;5097693;28;20244;-87
2022/01/06 12:09:19;;;;;;;8.77;2.50;;;6.20;99.90;;;;;;5078818;28;20255;-87
2022/01/06 12:11:45;;;;;;;11.57;2.58;;;6.20;99.90;;;;;;5097390;28;20425;-91
2022/01/06 12:14:11;;;;;;;3.43;1.97;;;6.00;99.90;;;;;;5077361;28;20200;-89
2022/01/06 12:16:41;;;;;;;8.15;2.10;;;5.80;99.90;;;;;;5081048;28;20541;-87
2022/01/06 12:19:24;;;;;;;7.88;2.85;;;5.90;99.90;;;;;;5086205;28;20261;-87
2022/01/06 12:21:50;;;;;;;9.80;3.45;;;6.60;99.90;;;;;;5060668;28;20537;-86
2022/01/06 12:24:16;;;;;;;6.37;3.07;;;6.10;99.90;;;;;;5060338;28;20268;-84
2022/01/06 12:26:43;;;;;;;10.90;3.30;;;6.50;99.90;;;;;;5058878;28;20917;-88
2022/01/06 12:29:15;;;;;;;6.20;3.40;;;6.20;99.90;;;;;;5056701;28;20427;-88
2022/01/06 12:31:42;;;;;;;9.23;3.20;;;6.20;99.90;;;;;;5063285;28;20519;-88
2022/01/06 12:34:10;;;;;;;12.45;2.80;;;6.20;99.90;;;;;;5070736;28;20489;-85
2022/01/06 12:36:37;;;;;;;9.25;2.80;;;6.40;99.90;;;;;;5072911;28;20184;-86
2022/01/06 12:39:17;;;;;;;11.15;3.20;;;6.50;99.90;;;;;;5075075;28;20873;-86
2022/01/06 12:41:44;;;;;;;5.32;2.38;;;5.80;99.90;;;;;;5078505;28;20241;-87
2022/01/06 12:44:16;;;;;;;5.68;2.55;;;5.40;99.90;;;;;;5077992;28;20231;-87
2022/01/06 12:46:42;;;;;;;10.65;3.47;;;5.30;99.90;;;;;;5080920;28;20709;-86
2022/01/06 12:49:09;;;;;;;5.05;2.63;;;5.10;99.90;;;;;;5080499;28;20251;-87
2022/01/06 12:51:37;;;;;;;8.15;3.00;;;4.90;99.90;;;;;;5083291;28;20184;-88
2022/01/06 12:54:11;;;;;;;12.73;2.90;;;4.90;99.90;;;;;;5079505;28;20205;-86
2022/01/06 12:56:39;;;;;;;8.90;2.90;;;5.00;99.90;;;;;;5071609;28;20842;-87
2022/01/06 12:59:23;;;;;;;9.15;2.83;;;4.80;99.90;;;;;;5095893;28;20196;-87
2022/01/06 13:01:54;;;;;;;5.80;2.90;;;4.80;99.90;;;;;;5076949;28;20700;-87
2022/01/06 13:04:26;;;;;;;7.78;2.58;;;4.80;99.90;;;;;;5077682;28;20191;-88
2022/01/06 13:06:56;;;;;;;13.65;3.50;;;4.70;99.90;;;;;;5075242;28;20372;-87
2022/01/06 13:09:23;;;;;;;8.77;2.88;;;4.70;99.90;;;;;;5078117;28;20260;-87
2022/01/06 13:11:54;;;;;;;10.43;3.20;;;4.70;99.90;;;;;;5057986;28;20192;-87
2022/01/06 13:14:36;;;;;;;8.75;3.55;;;4.70;99.90;;;;;;5057608;28;20404;-87
2022/01/06 13:17:15;;;;;;;3.50;2.42;;;4.70;99.90;;;;;;5074967;28;20473;-87
2022/01/06 13:20:10;;;;;;;6.75;3.20;;;4.70;99.90;;;;;;5075109;28;20225;-87
2022/01/06 13:25:21;;;;;;;14.50;3.35;;;4.70;99.90;;;;;;5076101;28;20189;-88
2022/01/06 13:28:06;;;;;;;6.80;2.70;;;4.80;99.90;;;;;;5073395;28;20188;-87
2022/01/06 13:30:47;;;;;;;19.30;3.90;;;4.80;99.90;;;;;;5063483;28;20192;-87
2022/01/06 13:33:15;;;;;;;8.55;3.10;;;4.60;99.90;;;;;;5072346;28;20287;-87
2022/01/06 13:35:51;;;;;;;9.25;3.40;;;4.60;99.90;;;;;;5059180;28;20193;-86
2022/01/06 13:38:22;;;;;;;18.38;3.28;;;4.50;99.90;;;;;;5074484;28;20192;-87